Terminal Aerodrome Forecast
Issued by NWS Buffalo, NY

Home | Current Version | Previous Version | Text Only | Print | Product List | Glossary On
Versions: 1 2 3 4 5 6 7 8 9 10 11 12 13 14 15 16 17 18 19 20 21 22 23 24 25 26 27 28 29 30
000
FTUS41 KBUF 291100
TAFROC
TAF
KROC 291123Z 2912/3012 25008KT P6SM SKC
     FM291700 22012KT P6SM SCT200
     FM300000 17008KT P6SM BKN150
     FM300400 19015G23KT 6SM -SHRASN OVC070
     FM300500 20016G24KT 4SM -SHSN OVC060
     FM300700 21016G27KT P6SM VCSH OVC040=

USA.gov is the U.S. government's official web portal to all federal, state and local government web resources and services.